Time;durP1;ratioP1;P1;durP2;ratioP2;P2;SDS_P1;SDS_P2;PMS_P1;PMS_P2;Temp;Humidity;BMP_temperature;BMP_pressure;BME280_temperature;BME280_humidity;BME280_pressure;Samples;Min_cycle;Max_cycle;Signal;HPM_P1;HPM_P2
2024/04/12 00:01:18;;;;;;;;;10.50;10.50;;;;;;;;5388040;26;9916;-88
2024/04/12 00:03:48;;;;;;;;;13.50;11.75;;;;;;;;5397789;26;9997;-85
2024/04/12 00:06:15;;;;;;;;;11.50;11.50;;;;;;;;5406605;26;9833;-86
2024/04/12 00:08:46;;;;;;;;;16.25;16.25;;;;;;;;5396555;26;9712;-86
2024/04/12 00:11:19;;;;;;;;;12.00;10.00;;;;;;;;5408483;26;9876;-89
2024/04/12 00:13:46;;;;;;;;;15.25;13.75;;;;;;;;5410117;26;9796;-86
2024/04/12 00:16:23;;;;;;;;;11.75;11.75;;;;;;;;5395850;26;9708;-86
2024/04/12 00:18:57;;;;;;;;;14.00;14.00;;;;;;;;5385633;26;9568;-85
2024/04/12 00:21:27;;;;;;;;;13.00;12.00;;;;;;;;5398547;26;9565;-86
2024/04/12 00:23:53;;;;;;;;;11.75;11.75;;;;;;;;5381373;26;9626;-86
2024/04/12 00:26:29;;;;;;;;;8.50;8.50;;;;;;;;5399354;26;9753;-86
2024/04/12 00:28:58;;;;;;;;;8.50;8.50;;;;;;;;5390897;26;9608;-88
2024/04/12 00:31:28;;;;;;;;;8.00;8.00;;;;;;;;5410989;26;9518;-87
2024/04/12 00:33:55;;;;;;;;;9.75;9.75;;;;;;;;5377957;26;9828;-87
2024/04/12 00:36:24;;;;;;;;;9.75;6.00;;;;;;;;5381768;26;9835;-87
2024/04/12 00:38:55;;;;;;;;;11.00;11.00;;;;;;;;5393145;26;9868;-88
2024/04/12 00:41:27;;;;;;;;;19.75;19.00;;;;;;;;5407658;26;9864;-86
2024/04/12 00:43:53;;;;;;;;;15.00;13.50;;;;;;;;5394639;26;10227;-87
2024/04/12 00:46:23;;;;;;;;;9.75;9.75;;;;;;;;5384334;26;9991;-87
2024/04/12 00:48:51;;;;;;;;;12.00;12.00;;;;;;;;5414240;26;9979;-86
2024/04/12 00:51:21;;;;;;;;;10.75;8.50;;;;;;;;5390718;26;9962;-89
2024/04/12 00:53:51;;;;;;;;;10.75;10.50;;;;;;;;5405423;26;9902;-86
2024/04/12 00:56:20;;;;;;;;;12.25;12.25;;;;;;;;5414843;26;9982;-86
2024/04/12 00:58:49;;;;;;;;;16.75;14.50;;;;;;;;5392862;26;10090;-86
2024/04/12 01:01:19;;;;;;;;;24.50;24.25;;;;;;;;5402839;26;10082;-87
2024/04/12 01:03:46;;;;;;;;;16.00;16.00;;;;;;;;5392635;26;10858;-85
2024/04/12 01:06:18;;;;;;;;;19.75;19.00;;;;;;;;5393161;26;10268;-86
2024/04/12 01:08:44;;;;;;;;;19.75;16.50;;;;;;;;5383640;26;10438;-88
2024/04/12 01:11:14;;;;;;;;;15.75;15.75;;;;;;;;5412913;26;10207;-88
2024/04/12 01:13:49;;;;;;;;;15.50;15.50;;;;;;;;5394487;26;10508;-87
2024/04/12 01:16:19;;;;;;;;;17.50;15.75;;;;;;;;5402261;26;11238;-86
2024/04/12 01:18:45;;;;;;;;;19.25;19.25;;;;;;;;5414843;26;10428;-87
2024/04/12 01:21:14;;;;;;;;;18.25;16.00;;;;;;;;5399537;26;10459;-87
2024/04/12 01:23:42;;;;;;;;;15.75;15.75;;;;;;;;5384094;26;10444;-88
2024/04/12 01:26:17;;;;;;;;;17.75;16.25;;;;;;;;5382749;26;10350;-86
2024/04/12 01:28:44;;;;;;;;;15.50;15.50;;;;;;;;5414054;26;11199;-88
2024/04/12 01:31:17;;;;;;;;;15.50;14.25;;;;;;;;5393416;26;10237;-88
2024/04/12 01:33:48;;;;;;;;;18.25;16.50;;;;;;;;5376342;26;10446;-88
2024/04/12 01:36:17;;;;;;;;;22.25;21.75;;;;;;;;5360507;26;10499;-85
2024/04/12 01:38:53;;;;;;;;;13.75;13.75;;;;;;;;5382028;26;10556;-91
2024/04/12 01:41:31;;;;;;;;;23.75;22.75;;;;;;;;5362303;26;10555;-87
2024/04/12 01:44:06;;;;;;;;;23.50;21.50;;;;;;;;5364967;26;10745;-89
2024/04/12 01:46:35;;;;;;;;;15.75;15.75;;;;;;;;5370650;26;10905;-91
2024/04/12 01:49:01;;;;;;;;;15.00;15.00;;;;;;;;5368454;26;10557;-87
2024/04/12 01:51:34;;;;;;;;;12.50;12.50;;;;;;;;5355610;26;10317;-89
2024/04/12 01:54:13;;;;;;;;;12.75;12.75;;;;;;;;5354526;26;10340;-87
2024/04/12 01:56:47;;;;;;;;;19.50;19.50;;;;;;;;5361236;26;11462;-88
2024/04/12 01:59:15;;;;;;;;;19.25;16.25;;;;;;;;5357136;26;10678;-90
2024/04/12 02:01:48;;;;;;;;;16.00;14.50;;;;;;;;5371880;26;10414;-91
2024/04/12 02:04:18;;;;;;;;;14.75;14.75;;;;;;;;5368214;26;10681;-87
2024/04/12 02:06:48;;;;;;;;;10.75;10.00;;;;;;;;5348451;26;10428;-91
2024/04/12 02:09:14;;;;;;;;;17.50;17.25;;;;;;;;5369556;26;10375;-90
2024/04/12 02:11:52;;;;;;;;;15.00;14.00;;;;;;;;5379440;26;10555;-92
2024/04/12 02:14:18;;;;;;;;;18.50;15.75;;;;;;;;5379419;26;10371;-88
2024/04/12 02:16:50;;;;;;;;;13.00;12.50;;;;;;;;5379886;26;10653;-89
2024/04/12 02:19:21;;;;;;;;;19.75;18.25;;;;;;;;5346143;26;10627;-86
2024/04/12 02:21:50;;;;;;;;;13.75;13.75;;;;;;;;5371283;26;10625;-88
2024/04/12 02:24:17;;;;;;;;;15.75;14.00;;;;;;;;5379540;26;10276;-88
2024/04/12 02:26:49;;;;;;;;;15.75;14.75;;;;;;;;5357685;26;10593;-89
2024/04/12 02:29:16;;;;;;;;;18.25;18.25;;;;;;;;5356271;26;10691;-88
2024/04/12 02:31:45;;;;;;;;;23.25;20.25;;;;;;;;5383794;26;10536;-88
2024/04/12 02:34:13;;;;;;;;;20.00;18.00;;;;;;;;5382459;26;10791;-88
2024/04/12 02:36:42;;;;;;;;;21.75;21.75;;;;;;;;5382691;26;10702;-89
2024/04/12 02:39:08;;;;;;;;;28.50;28.50;;;;;;;;5378711;26;10969;-88
2024/04/12 02:41:41;;;;;;;;;21.00;20.00;;;;;;;;5381330;26;11038;-85
2024/04/12 02:44:15;;;;;;;;;17.25;17.25;;;;;;;;5383472;26;10815;-86
2024/04/12 02:46:47;;;;;;;;;19.75;19.75;;;;;;;;5381340;26;10563;-86
2024/04/12 02:49:14;;;;;;;;;20.25;19.00;;;;;;;;5381426;26;10767;-86
2024/04/12 02:51:47;;;;;;;;;16.00;16.00;;;;;;;;5380768;26;10682;-85
2024/04/12 02:54:14;;;;;;;;;18.25;15.00;;;;;;;;5382456;26;10681;-85
2024/04/12 02:56:44;;;;;;;;;15.25;14.25;;;;;;;;5379148;26;10778;-87
2024/04/12 02:59:14;;;;;;;;;20.00;17.75;;;;;;;;5379172;26;10689;-86
2024/04/12 03:01:45;;;;;;;;;20.00;18.00;;;;;;;;5374998;26;10518;-88
2024/04/12 03:04:12;;;;;;;;;16.00;14.75;;;;;;;;5371451;26;10791;-87
2024/04/12 03:06:41;;;;;;;;;19.50;17.75;;;;;;;;5378810;26;10898;-87
2024/04/12 03:09:07;;;;;;;;;19.25;15.50;;;;;;;;5350196;26;10872;-88
2024/04/12 03:11:37;;;;;;;;;19.00;17.00;;;;;;;;5371650;26;10618;-88
2024/04/12 03:14:04;;;;;;;;;19.75;19.75;;;;;;;;5376679;26;10788;-88
2024/04/12 03:16:38;;;;;;;;;16.50;14.75;;;;;;;;5379346;26;11022;-87
2024/04/12 03:19:07;;;;;;;;;22.00;19.25;;;;;;;;5376064;26;10784;-90
2024/04/12 03:21:37;;;;;;;;;18.75;15.25;;;;;;;;5379990;26;10940;-91
2024/04/12 03:24:04;;;;;;;;;18.25;18.25;;;;;;;;5376641;26;10792;-87
2024/04/12 03:26:36;;;;;;;;;16.50;16.50;;;;;;;;5379113;26;10843;-86
2024/04/12 03:29:05;;;;;;;;;17.50;14.25;;;;;;;;5381072;26;10875;-87
2024/04/12 03:31:39;;;;;;;;;23.25;20.00;;;;;;;;5376918;26;10590;-88
2024/04/12 03:34:06;;;;;;;;;19.75;17.75;;;;;;;;5367433;26;11009;-87
2024/04/12 03:36:53;;;;;;;;;24.00;22.00;;;;;;;;5369197;26;10900;-89
2024/04/12 03:39:28;;;;;;;;;20.25;20.25;;;;;;;;5360362;26;11203;-88
2024/04/12 03:42:04;;;;;;;;;23.50;23.50;;;;;;;;5355608;26;11104;-89
2024/04/12 03:44:34;;;;;;;;;22.75;20.25;;;;;;;;5375826;26;11121;-86
2024/04/12 03:47:10;;;;;;;;;18.25;18.25;;;;;;;;5367998;26;11028;-89
2024/04/12 03:49:39;;;;;;;;;24.50;24.25;;;;;;;;5374175;26;11104;-92
2024/04/12 03:52:11;;;;;;;;;21.75;21.75;;;;;;;;5373324;26;11323;-84
2024/04/12 03:54:37;;;;;;;;;26.25;19.25;;;;;;;;5380698;26;11059;-85
2024/04/12 03:57:09;;;;;;;;;24.25;20.25;;;;;;;;5372195;26;11026;-89
2024/04/12 03:59:36;;;;;;;;;20.75;18.75;;;;;;;;5374247;26;11192;-88
2024/04/12 04:02:13;;;;;;;;;23.00;21.25;;;;;;;;5375351;26;10859;-87
2024/04/12 04:04:47;;;;;;;;;20.25;20.25;;;;;;;;5356341;26;11061;-88
2024/04/12 04:07:15;;;;;;;;;24.25;22.50;;;;;;;;5378880;26;11220;-85
2024/04/12 04:09:47;;;;;;;;;23.50;21.75;;;;;;;;5381162;26;11950;-87
2024/04/12 04:12:14;;;;;;;;;18.50;18.50;;;;;;;;5382343;26;11216;-86
2024/04/12 04:14:47;;;;;;;;;23.75;22.50;;;;;;;;5381187;26;10960;-87
2024/04/12 04:17:18;;;;;;;;;31.00;27.00;;;;;;;;5364206;26;11255;-86
2024/04/12 04:19:51;;;;;;;;;26.50;24.00;;;;;;;;5381808;26;11438;-86
2024/04/12 04:22:39;;;;;;;;;23.75;21.75;;;;;;;;5379026;26;11287;-87
2024/04/12 04:25:09;;;;;;;;;25.75;24.50;;;;;;;;5384095;26;11201;-86
2024/04/12 04:27:35;;;;;;;;;22.50;20.25;;;;;;;;5380790;26;11282;-86
2024/04/12 04:30:11;;;;;;;;;27.00;24.00;;;;;;;;5385527;26;11160;-85
2024/04/12 04:32:39;;;;;;;;;19.25;18.00;;;;;;;;5383378;26;11275;-85
2024/04/12 04:35:09;;;;;;;;;27.25;20.50;;;;;;;;5402232;26;11100;-85
2024/04/12 04:37:38;;;;;;;;;24.00;22.25;;;;;;;;5407975;26;11059;-85
2024/04/12 04:40:16;;;;;;;;;20.75;20.75;;;;;;;;5388323;26;11192;-85
2024/04/12 04:42:45;;;;;;;;;20.75;19.00;;;;;;;;5411949;26;11209;-87
2024/04/12 04:45:17;;;;;;;;;19.00;19.00;;;;;;;;5399519;26;11098;-85
2024/04/12 04:47:49;;;;;;;;;26.50;24.00;;;;;;;;5413514;26;10990;-88
2024/04/12 04:50:20;;;;;;;;;23.00;17.50;;;;;;;;5402946;26;11063;-85
2024/04/12 04:52:47;;;;;;;;;24.75;24.75;;;;;;;;5410189;26;11100;-88
2024/04/12 04:55:17;;;;;;;;;25.75;23.50;;;;;;;;5404184;26;11164;-86
2024/04/12 04:57:43;;;;;;;;;26.25;22.25;;;;;;;;5409500;26;11092;-87
2024/04/12 05:00:18;;;;;;;;;23.50;23.50;;;;;;;;5414001;26;11175;-87
2024/04/12 05:02:50;;;;;;;;;23.75;23.00;;;;;;;;5371217;26;11276;-85
2024/04/12 05:05:23;;;;;;;;;23.00;23.00;;;;;;;;5361835;26;11265;-87
2024/04/12 05:07:52;;;;;;;;;24.75;22.50;;;;;;;;5358641;26;11206;-76
2024/04/12 05:10:21;;;;;;;;;21.00;21.00;;;;;;;;5370908;26;10829;-75
2024/04/12 05:12:49;;;;;;;;;23.50;21.25;;;;;;;;5363123;26;11131;-77
2024/04/12 05:18:16;;;;;;;;;21.25;20.25;;;;;;;;5560569;25;13033;-82
2024/04/12 05:20:43;;;;;;;;;19.00;19.00;;;;;;;;5530013;26;11020;-81
2024/04/12 05:23:12;;;;;;;;;19.75;15.50;;;;;;;;5556242;25;11022;-81
2024/04/12 05:25:40;;;;;;;;;17.75;17.75;;;;;;;;5530008;26;10945;-81
2024/04/12 05:28:10;;;;;;;;;19.75;17.75;;;;;;;;5534119;25;11007;-81
2024/04/12 05:30:37;;;;;;;;;9.50;9.50;;;;;;;;5499412;26;10732;-80
2024/04/12 05:33:10;;;;;;;;;28.50;23.00;;;;;;;;5425478;26;10911;-81
2024/04/12 05:35:43;;;;;;;;;22.00;18.25;;;;;;;;5442198;26;11237;-81
2024/04/12 05:38:20;;;;;;;;;18.50;17.50;;;;;;;;5421491;26;10872;-80
2024/04/12 05:40:52;;;;;;;;;24.00;20.25;;;;;;;;5421862;26;11038;-81
2024/04/12 05:43:21;;;;;;;;;14.25;12.25;;;;;;;;5430864;26;10942;-81
2024/04/12 05:45:53;;;;;;;;;15.00;15.00;;;;;;;;5437697;26;11023;-81
2024/04/12 05:48:22;;;;;;;;;21.75;20.00;;;;;;;;5455816;26;10819;-80
2024/04/12 05:50:53;;;;;;;;;15.25;15.25;;;;;;;;5431770;26;10992;-81
2024/04/12 05:53:25;;;;;;;;;22.00;18.25;;;;;;;;5420715;26;11052;-81
2024/04/12 05:56:20;;;;;;;;;16.50;15.75;;;;;;;;5464041;26;11044;-81
2024/04/12 05:58:41;;;;;;;;;18.00;16.50;;;;;;;;5419973;26;10709;-81
2024/04/12 06:01:08;;;;;;;;;23.75;20.75;;;;;;;;5463600;26;11502;-80
2024/04/12 06:03:42;;;;;;;;;19.75;17.50;;;;;;;;5420282;26;10818;-81
2024/04/12 06:06:12;;;;;;;;;26.25;25.25;;;;;;;;5443757;26;10913;-80
2024/04/12 06:08:41;;;;;;;;;21.00;21.00;;;;;;;;5419631;26;10729;-80
2024/04/12 06:11:17;;;;;;;;;20.00;20.00;;;;;;;;5421141;26;10591;-80
2024/04/12 06:13:52;;;;;;;;;23.00;22.25;;;;;;;;5420549;26;10797;-81
2024/04/12 06:16:18;;;;;;;;;25.25;22.00;;;;;;;;5421494;26;10487;-78
2024/04/12 06:18:50;;;;;;;;;26.75;25.75;;;;;;;;5422484;26;10481;-77
2024/04/12 06:21:19;;;;;;;;;31.00;30.25;;;;;;;;5462116;26;10965;-78
2024/04/12 06:23:54;;;;;;;;;24.25;24.25;;;;;;;;5413605;26;10832;-78
2024/04/12 06:26:24;;;;;;;;;30.25;30.25;;;;;;;;5423119;26;10598;-78
2024/04/12 06:28:54;;;;;;;;;27.00;24.75;;;;;;;;5394546;26;10389;-79
2024/04/12 06:31:34;;;;;;;;;34.25;29.50;;;;;;;;5404239;26;10132;-79
2024/04/12 06:34:04;;;;;;;;;32.00;29.75;;;;;;;;5405254;26;10265;-80
2024/04/12 06:36:35;;;;;;;;;33.25;29.50;;;;;;;;5416869;26;10055;-81
2024/04/12 06:39:04;;;;;;;;;33.25;29.75;;;;;;;;5393439;26;9966;-84
2024/04/12 06:41:33;;;;;;;;;29.75;27.75;;;;;;;;5395212;26;9763;-85
2024/04/12 06:43:59;;;;;;;;;26.50;25.75;;;;;;;;5404937;26;9892;-81
2024/04/12 06:46:35;;;;;;;;;29.00;25.25;;;;;;;;5429782;26;9632;-87
2024/04/12 06:49:07;;;;;;;;;26.33;26.33;;;;;;;;5404736;26;9711;-86
2024/04/12 06:52:02;;;;;;;;;33.33;27.00;;;;;;;;5404211;26;9310;-84
2024/04/12 06:54:35;;;;;;;;;25.00;25.00;;;;;;;;5404211;26;9241;-87
2024/04/12 06:57:07;;;;;;;;;26.33;23.67;;;;;;;;5419979;26;9126;-87
2024/04/12 06:59:35;;;;;;;;;20.67;20.67;;;;;;;;5427483;26;9324;-81
2024/04/12 07:02:06;;;;;;;;;23.67;22.00;;;;;;;;5404970;26;8976;-82
2024/04/12 07:04:38;;;;;;;;;28.33;24.00;;;;;;;;5428909;26;9079;-82
2024/04/12 07:07:12;;;;;;;;;21.75;21.75;;;;;;;;5428351;26;9003;-85
2024/04/12 07:09:45;;;;;;;;;22.75;22.75;;;;;;;;5404082;26;9688;-81
2024/04/12 07:12:19;;;;;;;;;18.00;18.00;;;;;;;;5402789;26;8832;-82
2024/04/12 07:14:46;;;;;;;;;19.00;19.00;;;;;;;;5402904;26;8886;-82
2024/04/12 07:17:25;;;;;;;;;21.25;21.25;;;;;;;;5391550;26;9593;-81
2024/04/12 07:19:53;;;;;;;;;25.75;22.00;;;;;;;;5403487;26;8812;-81
2024/04/12 07:22:26;;;;;;;;;21.75;19.50;;;;;;;;5403414;26;8855;-82
2024/04/12 07:24:54;;;;;;;;;19.00;19.00;;;;;;;;5403571;26;9577;-81
2024/04/12 07:27:27;;;;;;;;;23.25;22.75;;;;;;;;5403991;26;8828;-82
2024/04/12 07:29:54;;;;;;;;;18.50;18.50;;;;;;;;5394532;26;8856;-82
2024/04/12 07:32:25;;;;;;;;;23.25;20.25;;;;;;;;5413608;26;8777;-81
2024/04/12 07:34:51;;;;;;;;;20.25;19.00;;;;;;;;5394957;26;8903;-81
2024/04/12 07:37:32;;;;;;;;;24.00;22.00;;;;;;;;5388604;26;8848;-80
2024/04/12 07:40:18;;;;;;;;;23.00;21.50;;;;;;;;5402574;26;8891;-83
2024/04/12 07:42:48;;;;;;;;;20.50;20.00;;;;;;;;5413052;26;8899;-83
2024/04/12 07:45:23;;;;;;;;;19.75;19.25;;;;;;;;5441468;26;8878;-84
2024/04/12 07:47:56;;;;;;;;;21.25;21.25;;;;;;;;5403096;26;9633;-87
2024/04/12 07:50:28;;;;;;;;;20.00;18.00;;;;;;;;5403316;26;8867;-81
2024/04/12 07:53:21;;;;;;;;;20.75;18.50;;;;;;;;5403165;26;8829;-81
2024/04/12 07:55:55;;;;;;;;;19.00;18.50;;;;;;;;5403047;26;9442;-88
2024/04/12 07:58:26;;;;;;;;;19.00;17.50;;;;;;;;5404024;26;9729;-80
2024/04/12 08:01:09;;;;;;;;;20.00;19.00;;;;;;;;5404279;26;9617;-85
2024/04/12 08:03:39;;;;;;;;;19.50;17.75;;;;;;;;5405366;26;8858;-84
2024/04/12 08:06:05;;;;;;;;;19.00;16.50;;;;;;;;5410106;26;8840;-83
2024/04/12 08:08:46;;;;;;;;;18.75;16.75;;;;;;;;5403145;26;8836;-82
2024/04/12 08:14:05;;;;;;;;;15.75;15.25;;;;;;;;5405705;26;8852;-82
2024/04/12 08:16:35;;;;;;;;;17.00;17.00;;;;;;;;5406087;26;8840;-82
2024/04/12 08:19:12;;;;;;;;;14.75;14.75;;;;;;;;5449135;26;8895;-83
2024/04/12 08:21:44;;;;;;;;;16.00;14.75;;;;;;;;5405152;26;8832;-82
2024/04/12 08:24:15;;;;;;;;;16.50;13.00;;;;;;;;5438584;26;8839;-83
2024/04/12 08:26:48;;;;;;;;;18.25;16.00;;;;;;;;5405345;26;8835;-83
2024/04/12 08:29:20;;;;;;;;;18.25;14.50;;;;;;;;5403661;26;8964;-83
2024/04/12 08:31:50;;;;;;;;;14.00;13.50;;;;;;;;5380357;26;8765;-83
2024/04/12 08:34:16;;;;;;;;;13.25;13.25;;;;;;;;5403259;26;8820;-83
2024/04/12 08:36:49;;;;;;;;;13.75;13.75;;;;;;;;5402474;26;8899;-83
2024/04/12 08:39:29;;;;;;;;;16.25;14.25;;;;;;;;5403090;26;8847;-82
2024/04/12 08:42:04;;;;;;;;;12.50;12.50;;;;;;;;5403438;26;8832;-83
2024/04/12 08:44:30;;;;;;;;;12.75;12.75;;;;;;;;5403030;26;8828;-82
2024/04/12 08:47:17;;;;;;;;;13.50;13.50;;;;;;;;5403818;26;8855;-84
2024/04/12 08:49:45;;;;;;;;;6.00;6.00;;;;;;;;5402836;26;8828;-83
2024/04/12 08:52:24;;;;;;;;;13.40;12.40;;;;;;;;5403542;26;8944;-82
2024/04/12 08:54:54;;;;;;;;;11.60;11.60;;;;;;;;5415336;26;8832;-83
2024/04/12 08:57:25;;;;;;;;;10.40;10.40;;;;;;;;5413386;26;8900;-83
2024/04/12 08:59:52;;;;;;;;;11.20;11.20;;;;;;;;5402709;26;8886;-82
2024/04/12 09:02:24;;;;;;;;;9.20;9.20;;;;;;;;5401145;26;8761;-82
2024/04/12 09:04:52;;;;;;;;;10.00;10.00;;;;;;;;5426083;26;8828;-82
2024/04/12 09:07:23;;;;;;;;;13.20;12.00;;;;;;;;5402445;26;8834;-83
2024/04/12 09:09:56;;;;;;;;;15.80;11.40;;;;;;;;5401838;26;8907;-83
2024/04/12 09:12:27;;;;;;;;;11.40;11.00;;;;;;;;5399555;26;8843;-83
2024/04/12 09:14:54;;;;;;;;;12.00;10.40;;;;;;;;5402309;26;8882;-83
2024/04/12 09:17:28;;;;;;;;;11.20;11.20;;;;;;;;5402169;26;8881;-83
2024/04/12 09:19:57;;;;;;;;;12.20;10.00;;;;;;;;5437896;26;9626;-82
2024/04/12 09:22:30;;;;;;;;;9.40;9.40;;;;;;;;5386480;26;9299;-83
2024/04/12 09:25:14;;;;;;;;;11.80;11.80;;;;;;;;5401547;26;8808;-82
2024/04/12 09:27:48;;;;;;;;;11.60;10.20;;;;;;;;5402395;26;8824;-83
2024/04/12 09:33:20;;;;;;;;;9.00;8.80;;;;;;;;5313876;26;8839;-82
2024/04/12 09:35:51;;;;;;;;;9.20;9.00;;;;;;;;5308027;26;8844;-80
2024/04/12 09:38:21;;;;;;;;;8.20;6.80;;;;;;;;5364184;26;8863;-85
2024/04/12 09:41:02;;;;;;;;;9.40;8.00;;;;;;;;5402796;26;8856;-84
2024/04/12 09:43:36;;;;;;;;;8.20;7.40;;;;;;;;5402752;26;8821;-82
2024/04/12 09:46:08;;;;;;;;;7.00;7.00;;;;;;;;5402503;26;8917;-81
2024/04/12 10:39:49;;;;;;;;;3.00;2.20;;;;;;;;5407301;26;9553;-76
2024/04/12 10:42:25;;;;;;;;;5.20;5.20;;;;;;;;5405002;26;8993;-82
2024/04/12 10:44:56;;;;;;;;;5.00;3.80;;;;;;;;5404680;26;8968;-80
2024/04/12 10:47:25;;;;;;;;;5.60;4.00;;;;;;;;5404617;26;8833;-85
2024/04/12 10:49:56;;;;;;;;;4.60;4.40;;;;;;;;5404527;26;8840;-84
2024/04/12 10:52:28;;;;;;;;;3.20;3.20;;;;;;;;5404389;26;8844;-89
2024/04/12 10:54:58;;;;;;;;;4.40;3.00;;;;;;;;5438780;26;8827;-82
2024/04/12 10:57:24;;;;;;;;;3.00;3.00;;;;;;;;5404165;26;8872;-80
2024/04/12 10:59:53;;;;;;;;;1.60;1.60;;;;;;;;5406090;26;8820;-77
2024/04/12 11:02:22;;;;;;;;;2.20;2.20;;;;;;;;5403853;25;8777;-81
2024/04/12 11:05:24;;;;;;;;;2.20;2.20;;;;;;;;5433321;26;8852;-86
2024/04/12 11:07:52;;;;;;;;;3.00;3.00;;;;;;;;5393378;26;9617;-81
2024/04/12 11:10:26;;;;;;;;;2.40;0.40;;;;;;;;5408399;26;8860;-83
2024/04/12 11:13:08;;;;;;;;;6.00;3.80;;;;;;;;5433486;26;8860;-84
2024/04/12 11:32:15;;;;;;;;;2.80;2.40;;;;;;;;5406480;26;8781;-77
2024/04/12 11:34:42;;;;;;;;;1.40;1.20;;;;;;;;5407175;26;8813;-80
2024/04/12 11:37:15;;;;;;;;;2.40;2.00;;;;;;;;5428844;26;8878;-75
2024/04/12 11:39:41;;;;;;;;;2.80;2.80;;;;;;;;5409819;26;8833;-76
2024/04/12 11:42:18;;;;;;;;;2.00;2.00;;;;;;;;5405161;26;8863;-75
2024/04/12 11:44:47;;;;;;;;;2.80;2.20;;;;;;;;5404271;26;8829;-76
2024/04/12 11:47:19;;;;;;;;;2.00;2.00;;;;;;;;5404102;26;8840;-80
2024/04/12 11:49:45;;;;;;;;;1.00;1.00;;;;;;;;5383220;26;8878;-77
2024/04/12 11:52:19;;;;;;;;;1.00;1.00;;;;;;;;5403424;26;8848;-77
2024/04/12 11:54:51;;;;;;;;;2.20;1.40;;;;;;;;5415614;26;8820;-78
2024/04/12 11:57:22;;;;;;;;;1.40;1.40;;;;;;;;5470852;26;8904;-78
2024/04/12 11:59:54;;;;;;;;;0.80;0.20;;;;;;;;5403407;26;8959;-76
2024/04/12 12:02:24;;;;;;;;;3.20;3.20;;;;;;;;5402437;26;8781;-80
2024/04/12 12:04:51;;;;;;;;;1.00;1.00;;;;;;;;5402337;26;8928;-80
2024/04/12 12:07:23;;;;;;;;;1.00;1.00;;;;;;;;5401831;26;8828;-80
2024/04/12 12:09:52;;;;;;;;;2.60;2.60;;;;;;;;5443775;26;8891;-79
2024/04/12 12:12:22;;;;;;;;;1.40;1.00;;;;;;;;5403512;26;8844;-83
2024/04/12 12:14:51;;;;;;;;;4.00;2.00;;;;;;;;5403420;26;8968;-80
2024/04/12 12:17:21;;;;;;;;;1.00;1.00;;;;;;;;5399966;26;8840;-82
2024/04/12 12:19:50;;;;;;;;;2.60;2.60;;;;;;;;5450420;26;9697;-81
2024/04/12 12:22:22;;;;;;;;;1.80;1.80;;;;;;;;5403406;26;9585;-80
2024/04/12 12:24:48;;;;;;;;;2.20;2.00;;;;;;;;5406327;26;8868;-80
2024/04/12 12:27:19;;;;;;;;;3.80;3.80;;;;;;;;5412429;26;8856;-82
2024/04/12 12:29:48;;;;;;;;;3.00;3.00;;;;;;;;5387873;26;8848;-81
2024/04/12 12:32:19;;;;;;;;;2.00;2.00;;;;;;;;5402167;26;8857;-82
2024/04/12 12:34:47;;;;;;;;;3.80;3.00;;;;;;;;5422282;26;8833;-81
2024/04/12 12:37:16;;;;;;;;;2.20;2.20;;;;;;;;5431017;26;8864;-80
2024/04/12 12:39:44;;;;;;;;;3.80;2.00;;;;;;;;5406851;26;8860;-80
2024/04/12 12:42:16;;;;;;;;;5.40;2.80;;;;;;;;5402762;26;8812;-79
2024/04/12 12:44:43;;;;;;;;;2.00;1.00;;;;;;;;5401546;26;8929;-82
2024/04/12 12:47:13;;;;;;;;;2.40;2.00;;;;;;;;5400863;26;8962;-77
2024/04/12 12:49:46;;;;;;;;;3.00;3.00;;;;;;;;5402088;26;9629;-75
2024/04/12 12:52:17;;;;;;;;;3.20;2.00;;;;;;;;5402060;26;8936;-81
2024/04/12 12:54:46;;;;;;;;;1.60;1.60;;;;;;;;5382483;26;8845;-81
2024/04/12 12:57:17;;;;;;;;;2.40;2.00;;;;;;;;5401232;26;8868;-78
2024/04/12 12:59:44;;;;;;;;;2.00;2.00;;;;;;;;5434632;26;8860;-80
2024/04/12 13:02:15;;;;;;;;;2.00;2.00;;;;;;;;5413222;26;8757;-80
2024/04/12 13:04:42;;;;;;;;;2.00;2.00;;;;;;;;5460816;26;8863;-79
2024/04/12 13:07:16;;;;;;;;;2.60;2.60;;;;;;;;5443521;26;8832;-83
2024/04/12 13:09:53;;;;;;;;;2.00;2.00;;;;;;;;5401376;26;9795;-82
2024/04/12 13:12:28;;;;;;;;;3.20;2.20;;;;;;;;5397621;26;8777;-82
2024/04/12 13:14:57;;;;;;;;;1.00;1.00;;;;;;;;5401283;26;9022;-79
2024/04/12 13:17:26;;;;;;;;;4.00;3.00;;;;;;;;5401489;26;9691;-78
2024/04/12 13:19:56;;;;;;;;;4.00;4.00;;;;;;;;5402124;26;8856;-80
2024/04/12 13:22:29;;;;;;;;;2.60;2.60;;;;;;;;5402059;26;8824;-82
2024/04/12 13:25:00;;;;;;;;;4.20;3.00;;;;;;;;5399822;26;8813;-80
2024/04/12 13:30:47;;;;;;;;;3.00;2.20;;;;;;;;5296750;26;8787;-78
2024/04/12 13:33:14;;;;;;;;;1.20;1.20;;;;;;;;5401292;26;8813;-78
2024/04/12 13:35:46;;;;;;;;;4.00;2.60;;;;;;;;5402844;26;8960;-82
2024/04/12 13:38:13;;;;;;;;;3.20;3.20;;;;;;;;5450055;26;8824;-82
2024/04/12 13:57:14;;;;;;;;;3.00;3.00;;;;;;;;5001383;27;8930;-83
2024/04/12 14:00:27;;;;;;;;;7.20;4.00;;;;;;;;5124105;27;9689;-77
2024/04/12 14:02:54;;;;;;;;;4.00;4.00;;;;;;;;5219903;27;8782;-82
2024/04/12 14:05:20;;;;;;;;;5.60;2.80;;;;;;;;5271897;26;8985;-80
2024/04/12 14:07:51;;;;;;;;;3.60;3.60;;;;;;;;5293880;26;8895;-83
2024/04/12 14:10:20;;;;;;;;;3.80;3.00;;;;;;;;5334525;26;8904;-82
2024/04/12 14:12:52;;;;;;;;;1.60;1.60;;;;;;;;5332528;26;8892;-79
2024/04/12 14:15:22;;;;;;;;;0.20;0.00;;;;;;;;5331197;26;8868;-83
2024/04/12 14:18:00;;;;;;;;;3.40;2.00;;;;;;;;5331210;26;8976;-81
2024/04/12 14:20:26;;;;;;;;;1.20;1.20;;;;;;;;5331414;26;8945;-81
2024/04/12 14:22:56;;;;;;;;;1.00;1.00;;;;;;;;5331308;26;8868;-82
2024/04/12 14:25:25;;;;;;;;;3.00;1.00;;;;;;;;5331414;26;8790;-82
2024/04/12 14:27:58;;;;;;;;;4.40;2.60;;;;;;;;5354575;26;8866;-80
2024/04/12 14:30:24;;;;;;;;;2.80;2.80;;;;;;;;5384729;25;8729;-82
2024/04/12 14:32:53;;;;;;;;;2.00;2.00;;;;;;;;5403499;26;8864;-79
2024/04/12 14:35:19;;;;;;;;;5.40;4.00;;;;;;;;5404266;26;8836;-80
2024/04/12 14:37:49;;;;;;;;;4.40;2.40;;;;;;;;5403492;26;8848;-82
2024/04/12 14:40:19;;;;;;;;;1.80;1.80;;;;;;;;5405351;26;8952;-80
2024/04/12 14:42:49;;;;;;;;;2.00;2.00;;;;;;;;5403710;26;8848;-80
2024/04/12 14:45:19;;;;;;;;;0.40;0.40;;;;;;;;5404181;26;8910;-87
2024/04/12 14:47:49;;;;;;;;;1.60;0.40;;;;;;;;5403973;26;8892;-81
2024/04/12 14:50:15;;;;;;;;;1.00;1.00;;;;;;;;5404119;26;8836;-80
2024/04/12 14:52:45;;;;;;;;;0.40;0.40;;;;;;;;5403436;26;8909;-82
2024/04/12 14:55:12;;;;;;;;;1.00;1.00;;;;;;;;5405682;26;8785;-77
2024/04/12 14:57:50;;;;;;;;;1.60;0.20;;;;;;;;5382307;26;8882;-80
2024/04/12 15:00:21;;;;;;;;;3.00;3.00;;;;;;;;5403470;25;8844;-82
2024/04/12 15:49:29;;;;;;;;;2.00;2.00;;;;;;;;5404357;26;8827;-81
2024/04/12 15:51:58;;;;;;;;;3.00;3.00;;;;;;;;5404739;26;8813;-83
2024/04/12 15:54:29;;;;;;;;;3.00;3.00;;;;;;;;5429302;26;8859;-84
2024/04/12 16:10:53;;;;;;;;;3.40;3.40;;;;;;;;5405241;26;8808;-80
2024/04/12 16:13:52;;;;;;;;;2.80;2.80;;;;;;;;5403208;26;8924;-79
2024/04/12 16:16:21;;;;;;;;;3.40;3.40;;;;;;;;5399261;26;8839;-79
2024/04/12 16:18:50;;;;;;;;;3.00;3.00;;;;;;;;5392030;26;8980;-85
2024/04/12 16:21:22;;;;;;;;;4.80;3.00;;;;;;;;5402791;26;8850;-83
2024/04/12 16:23:51;;;;;;;;;5.60;4.40;;;;;;;;5402228;26;9771;-81
2024/04/12 16:26:17;;;;;;;;;3.00;1.60;;;;;;;;5402290;26;8816;-84
2024/04/12 16:28:49;;;;;;;;;3.40;3.40;;;;;;;;5403417;26;8948;-79
2024/04/12 16:31:15;;;;;;;;;3.20;3.20;;;;;;;;5427752;26;8803;-82
2024/04/12 16:33:47;;;;;;;;;6.00;4.40;;;;;;;;5434541;26;8831;-84
2024/04/12 16:36:13;;;;;;;;;5.00;3.40;;;;;;;;5414238;26;8824;-80
2024/04/12 16:38:48;;;;;;;;;3.00;3.00;;;;;;;;5427210;26;8784;-84
2024/04/12 16:41:14;;;;;;;;;5.80;3.00;;;;;;;;5437028;26;8816;-82
2024/04/12 16:43:45;;;;;;;;;4.00;3.80;;;;;;;;5442366;26;8831;-79
2024/04/12 16:46:20;;;;;;;;;3.60;3.60;;;;;;;;5441369;26;8839;-84
2024/04/12 16:48:49;;;;;;;;;6.20;5.00;;;;;;;;5441936;26;8811;-79
2024/04/12 16:51:18;;;;;;;;;4.00;4.00;;;;;;;;5437591;26;8811;-80
2024/04/12 16:53:54;;;;;;;;;5.00;5.00;;;;;;;;5422707;26;8846;-80
2024/04/12 16:56:21;;;;;;;;;5.80;5.20;;;;;;;;5424805;26;8954;-88
2024/04/12 16:58:51;;;;;;;;;6.00;4.40;;;;;;;;5440652;26;8957;-82
2024/04/12 17:01:17;;;;;;;;;5.00;5.00;;;;;;;;5436871;26;8891;-82
2024/04/12 17:03:49;;;;;;;;;5.60;5.00;;;;;;;;5438260;26;8846;-83
2024/04/12 17:06:15;;;;;;;;;3.00;3.00;;;;;;;;5425267;26;8869;-84
2024/04/12 17:08:47;;;;;;;;;6.00;6.00;;;;;;;;5437795;26;8866;-84
2024/04/12 17:11:19;;;;;;;;;5.00;5.00;;;;;;;;5438870;26;8828;-82
2024/04/12 17:13:51;;;;;;;;;4.00;4.00;;;;;;;;5437570;26;8886;-83
2024/04/12 17:16:20;;;;;;;;;4.00;4.00;;;;;;;;5437928;26;8880;-84
2024/04/12 17:18:49;;;;;;;;;6.60;5.40;;;;;;;;5416169;26;8827;-84
2024/04/12 17:21:15;;;;;;;;;8.00;7.00;;;;;;;;5437781;26;8796;-83
2024/04/12 17:23:44;;;;;;;;;6.60;6.60;;;;;;;;5437677;26;8823;-85
2024/04/12 17:26:12;;;;;;;;;4.60;4.60;;;;;;;;5438736;26;8824;-83
2024/04/12 17:28:44;;;;;;;;;6.60;6.60;;;;;;;;5439022;26;8849;-86
2024/04/12 17:31:10;;;;;;;;;6.00;6.00;;;;;;;;5423159;26;8737;-86
2024/04/12 17:33:39;;;;;;;;;5.00;5.00;;;;;;;;5437384;26;8808;-86
2024/04/12 17:36:08;;;;;;;;;7.00;5.20;;;;;;;;5437949;26;8863;-83